Uruguaiana, Brazil
Current Conditions -  °F | °C
As of 4:00 PM on Tuesday 27 Jan 2015 (Local Time) from SBUG Reporting Station
Broken Clouds Broken Clouds  
Wind Chill: 88°   Ceiling: 8000
Heat Index: 91°   Visibility: 6mi
Dew Point: 68°   Wind: 6mph
Humidity: 52%   Direction: 10°N
Pressure: 29.8"   Gusts: NA
Location:  29.77°S, 57.09°W
Report Text: SBUG 271800Z 01005KT 9999 SCT030 BKN080 31/20 Q1009
Loading
Personal Weather Stations






























Interactive Weather Map New forecast layout! Learn more

10-Day Weather Forecast

Advertisements
Track Severe Weather on mobile